Time;durP1;ratioP1;P1;durP2;ratioP2;P2;SDS_P1;SDS_P2;PMS_P1;PMS_P2;Temp;Humidity;BMP_temperature;BMP_pressure;BME280_temperature;BME280_humidity;BME280_pressure;Samples;Min_cycle;Max_cycle;Signal;HPM_P1;HPM_P2
2023/02/06 00:01:41;;;;;;;27.23;2.67;;;3.50;99.90;;;;;;5014930;28;20034;-76
2023/02/06 00:04:06;;;;;;;18.55;1.55;;;3.40;99.90;;;;;;5014901;28;20493;-76
2023/02/06 00:06:39;;;;;;;21.63;2.00;;;3.40;99.90;;;;;;5015254;28;20022;-76
2023/02/06 00:09:06;;;;;;;21.17;1.27;;;6.60;99.90;;;;;;5015328;28;20041;-76
2023/02/06 00:11:35;;;;;;;18.60;1.80;;;3.40;99.90;;;;;;5013744;28;20389;-76
2023/02/06 00:14:00;;;;;;;;;;;3.30;99.90;;;;;;5015423;28;20026;-76
2023/02/06 00:16:34;;;;;;;25.35;3.05;;;3.30;99.90;;;;;;5013453;28;19913;-75
2023/02/06 00:19:01;;;;;;;22.75;2.05;;;3.30;99.90;;;;;;5013352;28;20060;-75
2023/02/06 00:21:28;;;;;;;16.52;1.25;;;3.30;99.90;;;;;;5014142;28;20500;-76
2023/02/06 00:23:58;;;;;;;14.45;1.38;;;3.30;99.90;;;;;;5014507;28;20080;-76
2023/02/06 00:26:27;;;;;;;20.42;1.58;;;3.40;99.90;;;;;;5014878;28;20053;-76
2023/02/06 00:28:59;;;;;;;18.88;2.05;;;3.30;99.90;;;;;;5014570;28;20092;-76
2023/02/06 00:31:28;;;;;;;15.25;1.42;;;3.40;99.90;;;;;;5014768;28;20431;-76
2023/02/06 00:33:54;;;;;;;17.88;1.92;;;3.40;99.90;;;;;;5014396;28;20527;-76
2023/02/06 00:36:20;;;;;;;19.95;2.17;;;3.40;99.90;;;;;;5014297;28;20021;-76
2023/02/06 00:38:45;;;;;;;25.02;2.03;;;3.40;99.90;;;;;;5014279;28;20022;-76
2023/02/06 00:41:11;;;;;;;23.02;2.55;;;3.40;99.90;;;;;;5014099;28;20041;-76
2023/02/06 00:43:36;;;;;;;24.83;3.00;;;3.40;99.90;;;;;;5012872;28;20478;-76
2023/02/06 00:46:02;;;;;;;13.48;1.10;;;3.40;99.90;;;;;;5014004;28;20052;-76
2023/02/06 00:48:28;;;;;;;20.80;1.50;;;;;;;;;;5012880;28;20477;-75
2023/02/06 00:51:01;;;;;;;21.00;2.20;;;3.60;99.90;;;;;;5013956;28;20026;-76
2023/02/06 00:53:27;;;;;;;14.38;2.05;;;3.60;99.90;;;;;;5013956;28;20037;-76
2023/02/06 00:55:54;;;;;;;21.92;2.42;;;3.60;99.90;;;;;;5013785;28;20493;-76
2023/02/06 00:58:20;;;;;;;25.45;3.25;;;3.60;99.90;;;;;;5014348;28;20018;-76
2023/02/06 01:00:45;;;;;;;16.88;1.30;;;3.50;99.90;;;;;;5013575;28;20112;-76
2023/02/06 01:03:11;;;;;;;10.98;2.22;;;3.50;99.90;;;;;;5013871;28;20030;-75
2023/02/06 01:05:36;;;;;;;18.90;1.73;;;3.50;99.90;;;;;;5013617;28;20026;-76
2023/02/06 01:08:02;;;;;;;19.23;2.65;;;3.50;99.90;;;;;;5013717;28;20110;-76
2023/02/06 01:10:28;;;;;;;29.17;2.03;;;3.60;99.90;;;;;;5012476;28;20029;-75
2023/02/06 01:12:53;;;;;;;23.35;2.15;;;3.60;99.90;;;;;;5014286;28;20064;-76
2023/02/06 01:15:19;;;;;;;27.10;2.40;;;3.60;99.90;;;;;;5013809;28;20026;-75
2023/02/06 01:17:45;;;;;;;17.98;2.28;;;3.60;99.90;;;;;;5013753;28;20327;-75
2023/02/06 01:20:12;;;;;;;15.48;2.25;;;3.50;99.90;;;;;;5013416;28;20026;-76
2023/02/06 01:22:38;;;;;;;12.50;1.48;;;3.60;99.90;;;;;;5012024;28;20397;-76
2023/02/06 01:25:08;;;;;;;11.27;1.77;;;3.50;99.90;;;;;;5013718;28;20022;-76
2023/02/06 01:27:38;;;;;;;20.52;1.75;;;3.50;99.90;;;;;;5012289;28;20022;-76
2023/02/06 01:30:05;;;;;;;15.25;1.65;;;3.50;99.90;;;;;;5013588;28;20080;-76
2023/02/06 01:32:34;;;;;;;12.88;1.30;;;3.50;99.90;;;;;;5015696;28;20022;-76
2023/02/06 01:35:00;;;;;;;16.90;1.10;;;3.50;99.90;;;;;;5017699;28;20104;-76
2023/02/06 01:37:25;;;;;;;18.70;2.00;;;3.50;99.90;;;;;;5017523;28;20432;-76
2023/02/06 01:39:51;;;;;;;19.75;1.63;;;3.50;99.90;;;;;;5017602;28;20022;-75
2023/02/06 01:42:16;;;;;;;14.10;0.93;;;3.50;99.90;;;;;;5017554;28;20018;-76
2023/02/06 01:44:42;;;;;;;20.05;1.77;;;3.50;99.90;;;;;;5017344;28;20026;-76
2023/02/06 01:47:09;;;;;;;9.65;1.30;;;3.50;99.90;;;;;;5016383;28;20053;-76
2023/02/06 01:49:43;;;;;;;17.90;1.08;;;3.50;99.90;;;;;;5017535;28;20109;-76
2023/02/06 01:52:14;;;;;;;21.50;1.45;;;3.50;99.90;;;;;;5016886;28;20023;-76
2023/02/06 01:54:41;;;;;;;9.55;0.60;;;3.40;99.90;;;;;;5016166;28;20507;-76
2023/02/06 01:57:09;;;;;;;23.65;0.75;;;3.40;99.90;;;;;;5017241;28;20022;-76
2023/02/06 01:59:40;;;;;;;;;;;3.40;99.90;;;;;;5018334;28;20095;-75
2023/02/06 02:02:06;;;;;;;12.95;1.33;;;3.20;99.90;;;;;;5017294;28;19912;-76
2023/02/06 02:04:33;;;;;;;15.45;0.85;;;3.40;99.90;;;;;;5016021;28;20022;-76
2023/02/06 02:07:05;;;;;;;14.55;0.43;;;3.40;99.90;;;;;;5016599;28;20018;-76
2023/02/06 02:09:35;;;;;;;15.00;2.42;;;3.40;99.90;;;;;;5017028;28;20022;-76
2023/02/06 02:12:03;;;;;;;20.30;2.45;;;3.40;99.90;;;;;;5015544;28;20025;-76
2023/02/06 02:14:29;;;;;;;12.05;0.68;;;3.30;99.90;;;;;;5015526;28;20085;-76
2023/02/06 02:17:31;;;;;;;12.52;1.60;;;3.30;99.90;;;;;;5016865;28;20034;-76
2023/02/06 02:20:06;;;;;;;14.35;0.63;;;3.40;99.90;;;;;;5026171;23;20042;-75
2023/02/06 02:22:51;;;;;;;13.95;1.38;;;3.30;99.90;;;;;;4998333;28;20036;-76
2023/02/06 02:26:01;;;;;;;24.38;2.35;;;3.40;99.90;;;;;;5017152;28;20029;-76
2023/02/06 02:28:44;;;;;;;17.65;1.00;;;3.40;99.90;;;;;;5001401;28;20057;-76
2023/02/06 02:31:26;;;;;;;14.15;1.52;;;3.30;99.90;;;;;;5032427;23;20053;-76
2023/02/06 02:34:22;;;;;;;21.50;1.05;;;3.30;99.90;;;;;;5018668;28;20057;-76
2023/02/06 02:37:01;;;;;;;11.18;1.30;;;3.30;99.90;;;;;;5018411;28;20033;-76
2023/02/06 02:39:34;;;;;;;18.92;1.13;;;3.20;99.90;;;;;;5036207;28;20026;-76
2023/02/06 02:42:15;;;;;;;14.52;1.15;;;3.20;99.90;;;;;;5017953;28;20027;-76
2023/02/06 02:45:02;;;;;;;12.77;0.90;;;3.10;99.90;;;;;;5017941;28;20390;-76
2023/02/06 02:47:37;;;;;;;12.95;1.63;;;3.10;99.90;;;;;;5018243;28;20112;-76
2023/02/06 02:50:04;;;;;;;16.48;0.95;;;3.00;99.90;;;;;;5036473;28;20040;-76
2023/02/06 02:52:29;;;;;;;10.43;1.13;;;3.00;99.90;;;;;;5036241;28;20102;-76
2023/02/06 02:54:58;;;;;;;20.02;0.85;;;3.00;99.90;;;;;;5018134;28;20061;-76
2023/02/06 02:57:30;;;;;;;18.40;1.05;;;3.90;99.90;;;;;;5018114;28;20033;-76
2023/02/06 02:59:58;;;;;;;12.02;1.27;;;2.80;99.90;;;;;;5017738;28;20025;-76
2023/02/06 03:02:30;;;;;;;14.57;1.25;;;2.80;99.90;;;;;;5018068;28;20021;-76
2023/02/06 03:05:03;;;;;;;10.45;1.05;;;2.80;99.90;;;;;;5017903;28;20112;-76
2023/02/06 03:08:01;;;;;;;16.85;3.25;;;2.60;99.90;;;;;;5017957;28;20018;-76
2023/02/06 03:10:32;;;;;;;16.43;1.27;;;2.80;99.90;;;;;;5017702;28;20067;-76
2023/02/06 03:13:33;;;;;;;15.63;0.93;;;2.80;99.90;;;;;;5035705;28;20416;-76
2023/02/06 03:16:21;;;;;;;16.98;2.38;;;2.70;99.90;;;;;;5018482;28;20047;-76
2023/02/06 03:19:02;;;;;;;27.95;2.30;;;2.70;99.90;;;;;;5017892;28;20022;-76
2023/02/06 03:21:33;;;;;;;15.75;1.80;;;2.70;99.90;;;;;;5017783;28;20038;-76
2023/02/06 03:24:02;;;;;;;16.17;1.80;;;2.60;99.90;;;;;;5035539;28;20022;-76
2023/02/06 03:26:30;;;;;;;16.23;1.13;;;2.70;99.90;;;;;;5017555;28;20025;-77
2023/02/06 03:29:00;;;;;;;18.63;1.27;;;2.60;99.90;;;;;;5017606;28;20032;-76
2023/02/06 03:31:32;;;;;;;17.90;1.83;;;2.50;99.90;;;;;;5017636;28;20025;-76
2023/02/06 03:34:22;;;;;;;14.20;0.80;;;2.50;99.90;;;;;;5035594;28;20033;-76
2023/02/06 03:36:49;;;;;;;15.43;1.15;;;2.50;99.90;;;;;;5035306;28;20036;-76
2023/02/06 03:39:15;;;;;;;9.82;0.90;;;2.40;99.90;;;;;;5035428;28;20104;-76
2023/02/06 03:41:42;;;;;;;16.92;0.57;;;2.30;99.90;;;;;;5017562;28;20112;-76
2023/02/06 03:44:11;;;;;;;10.13;0.47;;;2.30;99.90;;;;;;5017331;28;20510;-76
2023/02/06 03:46:40;;;;;;;12.05;1.23;;;2.20;99.90;;;;;;5017388;28;20025;-77
2023/02/06 03:49:08;;;;;;;16.45;1.33;;;2.10;99.90;;;;;;5034925;28;20529;-76
2023/02/06 03:51:39;;;;;;;14.23;0.68;;;2.10;99.90;;;;;;5034883;28;20033;-76
2023/02/06 03:54:07;;;;;;;16.52;0.70;;;1.90;99.90;;;;;;5016987;28;20099;-76
2023/02/06 03:56:41;;;;;;;13.40;1.10;;;1.90;99.90;;;;;;5017140;28;20072;-76
2023/02/06 03:59:07;;;;;;;11.10;0.20;;;1.90;99.90;;;;;;5035073;28;20517;-76
2023/02/06 04:01:33;;;;;;;11.02;0.68;;;1.90;99.90;;;;;;5034747;28;20089;-76
2023/02/06 04:04:02;;;;;;;7.90;0.90;;;1.80;99.90;;;;;;5016886;28;20047;-76
2023/02/06 04:06:27;;;;;;;;;;;1.70;99.90;;;;;;5017326;28;20022;-76
2023/02/06 04:08:53;;;;;;;9.05;0.40;;;1.70;99.90;;;;;;5016866;28;19960;-76
2023/02/06 04:11:18;;;;;;;9.98;0.38;;;3.10;99.90;;;;;;5034450;28;20071;-76
2023/02/06 04:13:44;;;;;;;22.65;1.02;;;1.70;99.90;;;;;;5016946;28;20026;-76
2023/02/06 04:16:12;;;;;;;14.88;0.55;;;1.70;99.90;;;;;;5034525;28;20104;-76
2023/02/06 04:18:37;;;;;;;11.40;2.05;;;1.70;99.90;;;;;;5016996;28;20072;-76
2023/02/06 04:21:05;;;;;;;7.22;0.35;;;1.70;99.90;;;;;;5016584;28;20017;-76
2023/02/06 04:23:30;;;;;;;9.88;0.55;;;1.70;99.90;;;;;;5016709;28;20384;-76
2023/02/06 04:25:56;;;;;;;10.00;1.27;;;1.70;99.90;;;;;;5016707;28;20017;-76
2023/02/06 04:28:21;;;;;;;16.42;1.02;;;1.70;99.90;;;;;;5034327;28;20018;-76
2023/02/06 04:30:47;;;;;;;11.25;1.10;;;1.70;99.90;;;;;;5034355;28;20503;-76
2023/02/06 04:33:13;;;;;;;18.30;0.70;;;1.60;99.90;;;;;;5016598;28;20488;-76
2023/02/06 04:35:38;;;;;;;16.02;0.73;;;1.60;99.90;;;;;;5034176;28;20022;-76
2023/02/06 04:38:04;;;;;;;12.35;0.38;;;1.60;99.90;;;;;;5016532;28;20017;-77
2023/02/06 04:40:30;;;;;;;12.23;0.30;;;;;;;;;;5033831;28;20053;-76
2023/02/06 04:42:55;;;;;;;13.40;0.70;;;1.50;99.90;;;;;;5016189;28;20029;-76
2023/02/06 04:45:21;;;;;;;15.23;1.25;;;1.50;99.90;;;;;;5016194;28;20028;-76
2023/02/06 04:47:49;;;;;;;17.20;0.40;;;1.40;99.90;;;;;;5016319;28;20195;-76
2023/02/06 04:50:17;;;;;;;10.18;0.90;;;1.40;99.90;;;;;;5034295;28;20037;-77
2023/02/06 04:52:43;;;;;;;11.82;1.17;;;1.40;99.90;;;;;;5033785;28;20025;-77
2023/02/06 04:55:09;;;;;;;8.82;0.60;;;1.40;99.90;;;;;;5034151;28;20033;-77
2023/02/06 04:57:37;;;;;;;6.28;0.40;;;1.40;99.90;;;;;;5033754;28;20384;-77
2023/02/06 05:00:05;;;;;;;9.73;1.35;;;1.40;99.90;;;;;;5015739;28;20079;-77
2023/02/06 05:02:38;;;;;;;7.25;1.13;;;1.40;99.90;;;;;;5015897;28;20115;-77
2023/02/06 05:05:08;;;;;;;10.55;1.27;;;1.30;99.90;;;;;;5033086;28;20488;-77
2023/02/06 05:07:37;;;;;;;9.13;0.15;;;1.40;99.90;;;;;;5015405;28;20022;-77
2023/02/06 05:10:03;;;;;;;14.88;0.88;;;1.40;99.90;;;;;;5033832;28;20018;-77
2023/02/06 05:12:28;;;;;;;9.18;0.95;;;1.40;99.90;;;;;;5015656;28;20110;-77
2023/02/06 05:14:55;;;;;;;12.13;0.30;;;1.40;99.90;;;;;;5033227;28;20053;-77
2023/02/06 05:17:21;;;;;;;11.10;0.80;;;1.40;99.90;;;;;;5015725;28;20025;-77
2023/02/06 05:19:46;;;;;;;10.80;0.20;;;1.40;99.90;;;;;;5033470;28;20392;-77
2023/02/06 05:22:12;;;;;;;8.40;1.38;;;1.40;99.90;;;;;;5033208;28;20026;-77
2023/02/06 05:24:37;;;;;;;11.82;1.10;;;1.30;99.90;;;;;;5033225;28;20424;-77
2023/02/06 05:27:06;;;;;;;14.32;0.40;;;1.30;99.90;;;;;;5015504;28;20431;-77
2023/02/06 05:29:31;;;;;;;14.80;1.52;;;1.30;99.90;;;;;;5033043;28;20096;-77
2023/02/06 05:32:06;;;;;;;9.60;0.75;;;1.30;99.90;;;;;;5015298;28;20037;-77
2023/02/06 05:34:31;;;;;;;10.88;0.47;;;1.30;99.90;;;;;;5015551;28;20030;-77
2023/02/06 05:36:57;;;;;;;12.95;0.95;;;1.30;99.90;;;;;;5033597;28;20079;-77
2023/02/06 05:39:26;;;;;;;14.68;0.57;;;1.30;99.90;;;;;;5033180;28;20025;-77
2023/02/06 05:41:51;;;;;;;13.10;0.75;;;1.20;99.90;;;;;;5015310;28;20022;-77
2023/02/06 05:44:18;;;;;;;12.95;0.10;;;1.30;99.90;;;;;;5032997;28;20056;-77
2023/02/06 05:46:47;;;;;;;49.05;2.05;;;1.20;99.90;;;;;;5015219;28;20060;-77
2023/02/06 05:49:13;;;;;;;9.73;1.30;;;1.30;99.90;;;;;;5033090;28;20113;-77
2023/02/06 05:51:39;;;;;;;12.80;0.70;;;1.30;99.90;;;;;;5015237;28;20017;-77
2023/02/06 05:54:05;;;;;;;10.43;0.63;;;1.30;99.90;;;;;;5033007;28;20112;-77
2023/02/06 05:56:30;;;;;;;12.85;0.40;;;1.40;99.90;;;;;;5015138;28;20056;-77
2023/02/06 05:58:56;;;;;;;14.43;2.10;;;1.40;99.90;;;;;;5032992;28;20033;-77
2023/02/06 06:01:22;;;;;;;18.70;0.75;;;1.40;99.90;;;;;;5033149;28;20052;-77
2023/02/06 06:03:53;;;;;;;11.27;0.93;;;1.50;99.90;;;;;;5015128;28;20025;-77
2023/02/06 06:06:19;;;;;;;11.93;0.70;;;1.70;99.90;;;;;;5015133;28;20025;-77
2023/02/06 06:08:47;;;;;;;10.65;0.32;;;1.60;99.90;;;;;;5015259;28;20028;-76
2023/02/06 06:11:13;;;;;;;12.90;0.22;;;1.70;99.90;;;;;;5033274;28;20518;-76
2023/02/06 06:13:38;;;;;;;11.20;0.80;;;1.70;99.90;;;;;;5033215;28;20025;-76
2023/02/06 06:16:05;;;;;;;13.77;1.08;;;1.70;99.90;;;;;;5016287;28;20080;-77
2023/02/06 06:18:34;;;;;;;4.78;0.52;;;1.70;99.90;;;;;;5018505;28;20029;-75
2023/02/06 06:20:59;;;;;;;11.35;0.45;;;1.80;99.90;;;;;;5018768;28;20057;-76
2023/02/06 06:23:25;;;;;;;11.52;0.85;;;1.70;99.90;;;;;;5037680;28;20063;-76
2023/02/06 06:25:51;;;;;;;14.32;1.20;;;;;;;;;;5036920;28;20029;-74
2023/02/06 06:28:17;;;;;;;15.18;1.33;;;1.70;99.90;;;;;;5019143;28;20025;-76
2023/02/06 06:30:42;;;;;;;14.85;1.33;;;1.70;99.90;;;;;;5018665;28;20472;-77
2023/02/06 06:33:09;;;;;;;9.02;0.65;;;;;;;;;;5037175;28;20069;-75
2023/02/06 06:35:35;;;;;;;13.60;1.67;;;1.70;99.90;;;;;;5037745;28;20033;-78
2023/02/06 06:38:00;;;;;;;12.00;1.25;;;1.70;99.90;;;;;;5019459;28;20399;-76
2023/02/06 06:40:26;;;;;;;8.25;0.75;;;1.70;99.90;;;;;;5019188;28;20025;-75
2023/02/06 06:42:52;;;;;;;9.68;0.57;;;1.70;99.90;;;;;;5037997;28;20033;-75
2023/02/06 06:45:17;;;;;;;10.82;0.88;;;1.70;99.90;;;;;;5019186;28;20109;-75
2023/02/06 06:47:46;;;;;;;16.55;0.60;;;1.70;99.90;;;;;;5019100;28;20091;-75
2023/02/06 06:50:14;;;;;;;4.95;0.40;;;1.70;99.90;;;;;;5019205;28;20018;-75
2023/02/06 06:52:40;;;;;;;7.63;0.60;;;1.80;99.90;;;;;;5036699;28;20018;-75
2023/02/06 06:55:06;;;;;;;4.30;0.60;;;1.80;99.90;;;;;;5019265;28;20219;-75
2023/02/06 06:57:33;;;;;;;9.63;0.10;;;2.50;99.90;;;;;;5037193;28;20021;-75
2023/02/06 06:59:58;;;;;;;13.30;0.85;;;1.90;99.90;;;;;;5037242;28;20464;-75
2023/02/06 07:02:24;;;;;;;6.53;0.40;;;1.90;99.90;;;;;;5020030;28;20080;-74
2023/02/06 07:04:49;;;;;;;9.50;0.98;;;1.90;99.90;;;;;;5037230;28;20036;-74
2023/02/06 07:07:16;;;;;;;10.15;0.95;;;1.90;99.90;;;;;;5018823;28;20029;-74
2023/02/06 07:09:41;;;;;;;11.07;1.38;;;2.00;99.90;;;;;;5019410;28;20488;-75
2023/02/06 07:12:07;;;;;;;9.07;0.82;;;1.90;99.90;;;;;;5036454;28;20064;-75
2023/02/06 07:14:32;;;;;;;7.25;0.98;;;2.00;99.90;;;;;;5036854;28;20018;-75
2023/02/06 07:17:01;;;;;;;7.90;0.30;;;2.00;99.90;;;;;;5038030;28;20026;-77
2023/02/06 07:19:27;;;;;;;;;;;2.10;99.90;;;;;;5019256;28;20522;-77
2023/02/06 07:21:53;;;;;;;10.88;0.93;;;3.20;99.90;;;;;;5037118;28;19905;-76
2023/02/06 07:24:19;;;;;;;11.98;1.08;;;2.10;99.90;;;;;;5035969;28;20029;-77
2023/02/06 07:26:44;;;;;;;13.93;1.15;;;2.10;99.90;;;;;;5018242;28;20026;-77
2023/02/06 07:29:13;;;;;;;11.25;0.95;;;2.10;99.90;;;;;;5035407;28;20396;-77
2023/02/06 07:31:39;;;;;;;14.38;1.60;;;2.10;99.90;;;;;;5018129;28;20373;-77
2023/02/06 07:34:07;;;;;;;7.00;0.25;;;2.10;99.90;;;;;;5035632;28;20071;-77
2023/02/06 07:36:36;;;;;;;15.40;0.98;;;2.10;99.90;;;;;;5036628;28;20017;-77
2023/02/06 07:39:02;;;;;;;;;;;2.10;99.90;;;;;;5036309;28;20480;-75
2023/02/06 07:41:30;;;;;;;13.40;0.45;;;2.10;99.90;;;;;;5018190;28;20368;-75
2023/02/06 07:43:56;;;;;;;9.63;0.80;;;2.20;99.90;;;;;;5036662;28;20026;-75
2023/02/06 07:46:24;;;;;;;7.78;0.45;;;2.20;99.90;;;;;;5018428;28;20017;-75
2023/02/06 07:48:49;;;;;;;5.75;0.52;;;2.20;99.90;;;;;;5036143;28;20480;-75
2023/02/06 07:51:15;;;;;;;11.98;0.73;;;2.20;99.90;;;;;;5036254;28;20014;-75
2023/02/06 07:53:41;;;;;;;5.53;0.22;;;2.20;99.90;;;;;;5036486;28;20021;-75
2023/02/06 07:56:15;;;;;;;8.20;0.52;;;2.30;99.90;;;;;;5035392;28;20025;-75
2023/02/06 07:58:42;;;;;;;7.38;0.50;;;2.30;99.90;;;;;;5035590;28;20365;-76
2023/02/06 08:01:11;;;;;;;5.43;0.40;;;2.40;99.90;;;;;;5034823;28;20118;-76
2023/02/06 08:03:36;;;;;;;6.55;0.30;;;4.30;99.90;;;;;;5017035;28;20026;-76
2023/02/06 08:06:10;;;;;;;15.35;1.10;;;2.50;99.90;;;;;;5034800;28;20495;-76
2023/02/06 08:08:36;;;;;;;9.38;1.67;;;2.50;99.90;;;;;;5034970;28;20017;-76
2023/02/06 08:11:13;;;;;;;10.15;1.05;;;2.70;99.90;;;;;;5017015;28;20014;-75
2023/02/06 08:13:39;;;;;;;5.78;0.60;;;2.60;99.90;;;;;;5016900;28;20063;-76
2023/02/06 08:16:10;;;;;;;9.63;0.93;;;2.70;99.90;;;;;;5034942;28;20494;-76
2023/02/06 08:18:36;;;;;;;11.63;0.88;;;3.30;99.90;;;;;;5017121;28;20065;-76
2023/02/06 08:21:31;;;;;;;10.05;1.65;;;2.90;99.90;;;;;;5016907;28;20029;-76
2023/02/06 08:23:58;;;;;;;9.18;1.75;;;3.00;99.90;;;;;;5017744;28;20408;-76
2023/02/06 08:26:26;;;;;;;9.02;1.52;;;3.00;99.90;;;;;;5034331;28;20025;-76
2023/02/06 08:28:53;;;;;;;12.90;2.30;;;3.10;99.90;;;;;;5034594;28;20021;-76
2023/02/06 08:31:31;;;;;;;9.90;2.20;;;3.20;99.90;;;;;;5033941;28;20045;-76
2023/02/06 08:34:04;;;;;;;14.07;1.08;;;3.30;99.90;;;;;;5016960;28;20037;-76
2023/02/06 08:36:31;;;;;;;12.18;1.20;;;3.30;99.90;;;;;;5016526;28;20113;-76
2023/02/06 08:39:01;;;;;;;13.57;0.85;;;3.50;99.90;;;;;;5034384;28;20025;-76
2023/02/06 08:41:29;;;;;;;17.38;1.70;;;3.50;99.90;;;;;;5033306;28;20033;-76
2023/02/06 08:43:57;;;;;;;9.55;0.90;;;3.60;99.90;;;;;;5034036;28;20026;-76
2023/02/06 08:46:27;;;;;;;16.20;1.92;;;3.60;99.90;;;;;;5034158;28;20025;-76
2023/02/06 08:49:07;;;;;;;9.65;1.23;;;3.70;99.90;;;;;;5034256;28;20021;-76
2023/02/06 08:51:34;;;;;;;13.55;1.83;;;3.80;99.90;;;;;;5016238;28;20061;-75
2023/02/06 08:54:05;;;;;;;13.10;1.02;;;4.00;99.90;;;;;;5017296;28;20116;-76
2023/02/06 08:56:33;;;;;;;14.68;1.60;;;4.10;99.90;;;;;;5034160;28;20413;-76
2023/02/06 08:59:04;;;;;;;16.00;1.98;;;4.10;99.90;;;;;;5034199;28;20043;-76
2023/02/06 09:01:34;;;;;;;12.05;1.08;;;4.20;99.90;;;;;;5033742;28;20029;-76
2023/02/06 09:04:06;;;;;;;10.88;0.93;;;4.20;99.90;;;;;;5033955;28;20076;-76
2023/02/06 09:06:36;;;;;;;17.95;2.45;;;4.30;99.90;;;;;;5034187;28;20037;-76
2023/02/06 09:09:03;;;;;;;23.98;3.13;;;4.30;99.90;;;;;;5033785;28;20014;-76
2023/02/06 09:11:30;;;;;;;22.55;1.23;;;4.40;99.90;;;;;;5015838;28;20071;-76
2023/02/06 09:13:58;;;;;;;18.92;1.95;;;4.30;99.90;;;;;;5034286;28;20025;-75
2023/02/06 09:16:25;;;;;;;11.27;1.02;;;4.50;99.90;;;;;;5033385;28;20404;-76
2023/02/06 09:18:52;;;;;;;20.45;2.33;;;4.50;99.90;;;;;;5033646;28;20025;-76
2023/02/06 09:21:20;;;;;;;21.02;1.63;;;4.60;99.90;;;;;;5033472;28;20037;-75
2023/02/06 09:23:49;;;;;;;20.93;1.50;;;4.80;99.90;;;;;;5033493;28;20035;-76
2023/02/06 09:26:17;;;;;;;13.75;1.80;;;4.90;99.90;;;;;;5015903;28;20013;-76
2023/02/06 09:28:43;;;;;;;17.77;2.30;;;5.10;99.90;;;;;;5015928;28;20030;-76
2023/02/06 09:31:10;;;;;;;14.98;2.28;;;5.20;99.90;;;;;;5033281;28;20030;-76
2023/02/06 09:33:38;;;;;;;21.00;2.13;;;5.10;99.90;;;;;;5016012;28;20017;-76
2023/02/06 09:36:08;;;;;;;;;;;5.20;99.90;;;;;;5033925;28;20108;-76
2023/02/06 09:38:35;;;;;;;17.05;1.90;;;5.30;99.90;;;;;;5015765;28;19937;-77
2023/02/06 09:41:04;;;;;;;20.70;1.70;;;5.30;99.90;;;;;;5015636;28;20032;-77
2023/02/06 09:43:32;;;;;;;;;;;5.30;99.90;;;;;;5033815;28;20057;-77
2023/02/06 09:46:07;;;;;;;25.25;2.15;;;5.40;99.90;;;;;;5015847;28;20012;-77
2023/02/06 09:48:38;;;;;;;22.02;3.65;;;5.40;99.90;;;;;;5033780;28;20021;-77
2023/02/06 09:51:17;;;;;;;18.33;2.03;;;6.20;99.90;;;;;;5015603;28;20018;-77
2023/02/06 09:54:04;;;;;;;14.73;1.60;;;5.60;99.90;;;;;;5019413;28;20056;-76
2023/02/06 09:57:02;;;;;;;24.20;2.15;;;5.70;99.90;;;;;;5037863;28;20423;-77
2023/02/06 09:59:58;;;;;;;19.38;2.35;;;5.90;99.90;;;;;;5038025;28;20033;-76
2023/02/06 10:02:36;;;;;;;16.08;1.27;;;6.00;99.90;;;;;;5019568;28;20033;-76
2023/02/06 10:05:09;;;;;;;18.35;1.58;;;6.10;99.90;;;;;;5019415;28;20502;-76
2023/02/06 10:08:11;;;;;;;13.75;1.92;;;6.20;99.90;;;;;;5019388;28;20032;-76
2023/02/06 10:10:57;;;;;;;16.55;2.65;;;6.30;99.90;;;;;;5037521;28;20067;-76
2023/02/06 10:13:58;;;;;;;13.48;1.77;;;6.60;99.90;;;;;;5037264;28;20064;-76
2023/02/06 10:16:36;;;;;;;17.50;1.80;;;6.70;99.90;;;;;;4941157;29;20031;-76
2023/02/06 10:19:28;;;;;;;13.13;2.13;;;6.70;99.90;;;;;;5009714;28;20040;-76
2023/02/06 10:22:31;;;;;;;15.77;1.65;;;6.70;99.90;;;;;;5019549;28;20025;-76
2023/02/06 10:25:35;;;;;;;20.92;2.22;;;6.80;99.90;;;;;;5037634;28;20026;-76
2023/02/06 10:28:23;;;;;;;7.28;1.15;;;6.90;99.90;;;;;;5019417;28;20018;-76
2023/02/06 10:30:48;;;;;;;7.28;0.70;;;6.90;99.90;;;;;;5036773;28;20033;-76
2023/02/06 10:33:38;;;;;;;15.60;1.70;;;7.00;99.90;;;;;;5019206;28;20499;-76
2023/02/06 10:36:13;;;;;;;16.65;1.45;;;7.10;99.90;;;;;;5037066;28;20385;-76
2023/02/06 10:39:06;;;;;;;21.23;2.83;;;7.70;99.90;;;;;;5018994;28;20026;-76
2023/02/06 10:41:59;;;;;;;12.07;1.60;;;7.70;99.90;;;;;;5015819;28;20030;-76
2023/02/06 10:44:29;;;;;;;11.05;1.23;;;7.80;99.90;;;;;;5019129;28;20037;-76
2023/02/06 10:46:59;;;;;;;11.38;1.65;;;8.10;99.90;;;;;;5037068;28;20026;-76
2023/02/06 10:49:29;;;;;;;7.40;1.27;;;8.10;99.90;;;;;;5037171;28;20017;-75
2023/02/06 10:52:25;;;;;;;12.98;2.33;;;8.10;99.90;;;;;;5036548;28;20468;-75
2023/02/06 10:54:55;;;;;;;16.92;1.05;;;8.20;99.90;;;;;;5008933;28;20048;-75
2023/02/06 10:57:23;;;;;;;13.93;0.90;;;8.20;99.90;;;;;;5036582;28;20026;-75
2023/02/06 10:59:59;;;;;;;14.98;1.10;;;8.30;99.90;;;;;;5018764;28;20025;-75
2023/02/06 11:02:44;;;;;;;6.30;0.57;;;8.30;99.90;;;;;;5018763;28;20025;-76
2023/02/06 11:05:17;;;;;;;17.75;2.13;;;8.40;99.90;;;;;;5035758;28;20040;-76
2023/02/06 11:07:50;;;;;;;12.82;0.50;;;8.60;99.90;;;;;;5036511;28;20519;-76
2023/02/06 11:10:22;;;;;;;25.83;2.78;;;8.40;99.90;;;;;;5036272;28;20048;-76
2023/02/06 11:13:20;;;;;;;18.00;1.38;;;8.20;99.90;;;;;;5036118;28;20505;-76
2023/02/06 11:16:01;;;;;;;19.42;2.00;;;8.20;99.90;;;;;;5017830;28;20017;-76
2023/02/06 11:18:41;;;;;;;12.43;1.52;;;8.00;99.90;;;;;;5035756;28;20021;-76
2023/02/06 11:21:09;;;;;;;9.23;0.85;;;8.00;99.90;;;;;;5035659;28;20018;-76
2023/02/06 11:23:41;;;;;;;14.02;1.35;;;8.00;99.90;;;;;;5035675;28;20029;-76
2023/02/06 11:26:22;;;;;;;17.67;3.28;;;8.20;99.90;;;;;;5017733;28;20018;-76
2023/02/06 11:28:57;;;;;;;11.95;2.05;;;8.40;99.90;;;;;;5035955;28;20071;-76
2023/02/06 11:31:48;;;;;;;12.93;1.92;;;8.60;99.90;;;;;;5035298;28;20502;-76
2023/02/06 11:34:22;;;;;;;18.48;1.88;;;8.90;99.90;;;;;;5017680;28;20032;-76
2023/02/06 11:36:52;;;;;;;10.52;0.40;;;9.20;99.90;;;;;;5017630;28;20102;-76
2023/02/06 11:39:31;;;;;;;19.58;2.28;;;9.40;99.90;;;;;;5034909;28;20523;-76
2023/02/06 11:42:14;;;;;;;13.27;1.45;;;9.50;99.90;;;;;;5035155;28;20105;-76
2023/02/06 11:44:44;;;;;;;9.95;0.10;;;9.10;99.90;;;;;;5017169;28;20026;-74
2023/02/06 11:47:35;;;;;;;11.25;0.73;;;8.80;99.90;;;;;;5035601;28;20056;-74
2023/02/06 11:50:12;;;;;;;10.27;0.88;;;8.60;99.90;;;;;;5034921;28;20431;-74
2023/02/06 11:52:43;;;;;;;16.65;0.80;;;8.60;99.90;;;;;;5017283;28;20034;-74
2023/02/06 11:55:24;;;;;;;10.43;0.80;;;9.50;99.90;;;;;;5034867;28;20366;-74
2023/02/06 11:58:11;;;;;;;18.30;2.17;;;8.40;99.90;;;;;;5034707;28;20021;-74
2023/02/06 12:00:50;;;;;;;12.55;0.77;;;8.40;99.90;;;;;;5016826;28;20036;-74
2023/02/06 12:03:30;;;;;;;7.78;0.35;;;8.60;99.90;;;;;;5034683;28;20061;-74
2023/02/06 12:06:27;;;;;;;6.03;0.88;;;8.80;99.90;;;;;;5016971;28;20502;-74
2023/02/06 12:08:58;;;;;;;8.77;0.50;;;9.10;99.90;;;;;;4999819;28;20496;-74
2023/02/06 12:11:32;;;;;;;14.55;2.58;;;9.10;99.90;;;;;;5035195;28;20032;-74
2023/02/06 12:14:08;;;;;;;7.15;1.00;;;9.20;99.90;;;;;;5034681;28;20036;-74
2023/02/06 12:16:41;;;;;;;10.77;0.43;;;9.30;99.90;;;;;;5034426;28;20484;-74
2023/02/06 12:19:25;;;;;;;11.63;1.27;;;9.10;99.90;;;;;;5034673;28;20032;-74
2023/02/06 12:21:56;;;;;;;13.05;0.57;;;9.10;99.90;;;;;;5034712;28;20092;-75
2023/02/06 12:24:41;;;;;;;7.38;0.30;;;9.20;99.90;;;;;;5034683;28;20029;-75
2023/02/06 12:27:23;;;;;;;12.25;1.33;;;8.80;99.90;;;;;;5016453;28;20144;-75
2023/02/06 12:30:28;;;;;;;11.77;1.02;;;9.00;99.90;;;;;;5016376;28;20017;-75
2023/02/06 12:33:02;;;;;;;8.82;1.23;;;9.30;99.90;;;;;;5022563;28;20049;-75
2023/02/06 12:35:45;;;;;;;11.60;0.47;;;9.80;99.90;;;;;;5034575;28;20029;-75
2023/02/06 12:38:48;;;;;;;9.25;0.52;;;10.40;99.90;;;;;;5034169;28;20045;-75
2023/02/06 12:41:51;;;;;;;10.02;0.20;;;10.70;99.90;;;;;;5016082;28;20052;-75
2023/02/06 12:44:25;;;;;;;3.70;0.40;;;11.20;99.90;;;;;;5033577;28;20026;-75
2023/02/06 12:47:00;;;;;;;6.40;0.10;;;11.30;99.90;;;;;;5016523;28;20108;-74
2023/02/06 12:50:00;;;;;;;8.13;0.40;;;11.20;99.90;;;;;;5034161;28;20026;-74
2023/02/06 12:52:35;;;;;;;7.20;0.60;;;11.10;99.90;;;;;;5016382;28;20084;-75
2023/02/06 12:55:18;;;;;;;8.25;0.30;;;10.90;99.90;;;;;;5015949;28;20048;-75
2023/02/06 12:57:44;;;;;;;12.27;0.25;;;10.70;99.90;;;;;;5033721;28;20052;-75
2023/02/06 13:00:19;;;;;;;11.80;0.63;;;10.20;99.90;;;;;;5015701;28;20026;-75
2023/02/06 13:03:15;;;;;;;9.07;0.43;;;10.10;99.90;;;;;;5015753;28;20029;-75
2023/02/06 13:05:45;;;;;;;9.80;0.38;;;9.80;99.90;;;;;;5034240;28;20510;-75
2023/02/06 13:08:43;;;;;;;7.55;0.40;;;9.40;99.90;;;;;;5033701;28;20013;-75
2023/02/06 13:11:33;;;;;;;10.43;0.95;;;9.30;99.90;;;;;;4992237;28;20040;-76
2023/02/06 13:14:08;;;;;;;15.18;0.63;;;9.30;99.90;;;;;;5034032;28;20025;-76
2023/02/06 13:16:42;;;;;;;9.15;0.50;;;9.30;99.90;;;;;;5033630;28;20404;-76
2023/02/06 13:19:39;;;;;;;11.35;1.02;;;9.70;99.90;;;;;;5033509;28;20037;-76